Time;durP1;ratioP1;P1;durP2;ratioP2;P2;SDS_P1;SDS_P2;PMS_P1;PMS_P2;Temp;Humidity;BMP_temperature;BMP_pressure;BME280_temperature;BME280_humidity;BME280_pressure;Samples;Min_cycle;Max_cycle;Signal;HPM_P1;HPM_P2
2023/05/09 00:00:45;;;;;;;22.98;10.75;;;11.20;1.00;11.70;94351.00;;;;7399578;19;20141;-77
2023/05/09 00:03:13;;;;;;;17.45;10.02;;;11.10;1.00;11.80;94375.00;;;;7400539;19;20627;-80
2023/05/09 00:05:47;;;;;;;17.40;9.18;;;11.10;1.00;11.80;94375.00;;;;7399228;19;20159;-80
2023/05/09 00:08:14;;;;;;;11.18;8.23;;;11.00;1.00;11.90;94362.00;;;;7402436;19;20117;-80
2023/05/09 00:10:48;;;;;;;15.48;9.48;;;11.00;1.00;11.60;94375.00;;;;7398352;19;20212;-80
2023/05/09 00:13:15;;;;;;;15.70;8.95;;;11.00;1.00;11.70;94373.00;;;;7401395;19;20586;-81
2023/05/09 00:15:59;;;;;;;10.63;7.53;;;11.00;1.00;11.70;94369.00;;;;7397789;19;20149;-78
2023/05/09 00:18:35;;;;;;;13.65;7.97;;;11.00;1.00;11.50;94369.00;;;;7400536;19;20641;-80
2023/05/09 00:21:04;;;;;;;13.95;8.48;;;10.90;1.00;11.50;94359.00;;;;7400528;19;20133;-80
2023/05/09 00:23:40;;;;;;;24.80;7.78;;;10.80;1.00;11.30;94361.00;;;;7400391;19;20156;-80
2023/05/09 00:26:15;;;;;;;10.20;6.45;;;10.70;1.00;11.30;94374.00;;;;7401025;19;20596;-79
2023/05/09 00:28:43;;;;;;;16.23;7.50;;;10.70;1.00;11.30;94363.00;;;;7400247;19;20139;-80
2023/05/09 00:31:17;;;;;;;9.48;7.53;;;10.60;1.00;11.50;94359.00;;;;7399878;19;20144;-80
2023/05/09 00:33:44;;;;;;;12.20;8.00;;;10.70;1.00;11.70;94354.00;;;;7396114;19;20466;-80
2023/05/09 00:36:19;;;;;;;10.73;8.10;;;10.80;1.00;11.70;94373.00;;;;7394290;19;20166;-79
2023/05/09 00:38:53;;;;;;;15.52;8.80;;;10.90;1.00;11.60;94344.00;;;;7399447;19;20643;-78
2023/05/09 00:41:27;;;;;;;10.98;8.27;;;10.90;1.00;11.70;94368.00;;;;7401447;19;20133;-79
2023/05/09 00:43:54;;;;;;;12.27;8.45;;;10.90;1.00;11.80;94367.00;;;;7401715;19;20146;-79
2023/05/09 00:46:29;;;;;;;10.82;8.45;;;10.90;1.00;11.80;94368.00;;;;7396997;19;20154;-79
2023/05/09 00:49:06;;;;;;;12.57;9.35;;;11.00;1.00;11.80;94351.00;;;;7400958;19;20217;-79
2023/05/09 00:51:41;;;;;;;14.10;9.48;;;11.00;1.00;11.80;94346.00;;;;7399541;19;20196;-78
2023/05/09 00:54:08;;;;;;;12.00;9.30;;;11.00;1.00;11.80;94296.00;;;;7400669;19;20133;-79
2023/05/09 00:56:42;;;;;;;16.13;9.63;;;11.00;1.00;11.80;94346.00;;;;7399998;19;20136;-79
2023/05/09 00:59:17;;;;;;;17.33;9.68;;;11.00;1.00;11.80;94311.00;;;;7398773;19;20140;-78
2023/05/09 01:01:51;;;;;;;15.15;10.18;;;11.00;1.00;11.80;94329.00;;;;7399323;19;20200;-77
2023/05/09 01:04:20;;;;;;;15.18;10.30;;;11.00;1.00;11.80;94334.00;;;;7394484;19;20160;-77
2023/05/09 01:07:05;;;;;;;15.45;9.88;;;11.00;1.00;11.80;94326.00;;;;7398333;19;20141;-77
2023/05/09 01:10:00;;;;;;;19.05;11.00;;;11.00;1.00;11.90;94329.00;;;;7400484;19;20168;-75
2023/05/09 01:12:53;;;;;;;16.13;11.02;;;11.00;1.00;11.90;94333.00;;;;7398263;19;20152;-77
2023/05/09 01:15:49;;;;;;;17.75;10.77;;;11.00;1.00;11.80;94333.00;;;;7395795;19;20177;-77
2023/05/09 01:18:43;;;;;;;15.00;9.98;;;11.10;1.00;11.80;94316.00;;;;7398731;19;20518;-77
2023/05/09 01:21:28;;;;;;;353.95;19.83;;;11.10;1.00;11.70;94328.00;;;;7397750;19;20151;-77
2023/05/09 01:24:38;;;;;;;242.05;13.68;;;11.10;1.00;11.60;94327.00;;;;7399646;19;20141;-77
2023/05/09 01:27:52;;;;;;;449.33;23.90;;;11.00;1.00;11.50;94325.00;;;;7399893;19;20139;-77
2023/05/09 01:30:27;;;;;;;31.02;12.20;;;11.00;1.00;11.60;94322.00;;;;7397662;19;20148;-77
2023/05/09 01:33:01;;;;;;;72.05;12.77;;;10.90;1.00;11.60;94312.00;;;;7399838;19;20160;-78
2023/05/09 01:35:41;;;;;;;17.75;11.07;;;10.90;1.00;11.60;94317.00;;;;7398538;19;20133;-76
2023/05/09 01:38:22;;;;;;;20.08;11.15;;;10.90;1.00;11.70;94289.00;;;;7397772;19;20145;-76
2023/05/09 01:41:00;;;;;;;21.55;12.25;;;10.90;1.00;11.70;94312.00;;;;7399331;19;20128;-77
2023/05/09 01:43:37;;;;;;;25.20;14.07;;;10.90;1.00;11.80;94317.00;;;;7398801;19;20596;-77
2023/05/09 01:46:15;;;;;;;23.05;14.10;;;10.90;1.00;11.90;94293.00;;;;7396998;19;20596;-77
2023/05/09 01:48:52;;;;;;;29.75;14.98;;;10.90;1.00;11.80;94323.00;;;;7398512;19;20155;-78
2023/05/09 01:51:20;;;;;;;24.25;14.10;;;11.00;1.00;11.80;94274.00;;;;7399202;19;20121;-76
2023/05/09 01:53:58;;;;;;;27.48;14.90;;;11.00;1.00;11.90;94282.00;;;;7398633;19;20141;-77
2023/05/09 01:56:35;;;;;;;34.75;16.05;;;11.10;1.00;11.90;94310.00;;;;7395854;19;20480;-77
2023/05/09 01:59:14;;;;;;;34.28;16.13;;;11.10;1.00;11.90;94296.00;;;;7394955;19;20203;-77
2023/05/09 02:01:51;;;;;;;32.00;15.88;;;11.00;1.00;11.90;94292.00;;;;7397380;19;20196;-77
2023/05/09 02:04:27;;;;;;;33.58;15.65;;;11.00;1.00;11.90;94308.00;;;;7394561;19;20220;-77
2023/05/09 02:07:03;;;;;;;34.50;14.70;;;11.00;1.00;11.90;94314.00;;;;7398029;19;20140;-77
2023/05/09 02:09:38;;;;;;;35.85;14.98;;;11.00;1.00;11.80;94314.00;;;;7396659;19;20136;-78
2023/05/09 02:12:06;;;;;;;28.65;13.32;;;11.00;1.00;11.70;94307.00;;;;7396968;19;20152;-77
2023/05/09 02:14:53;;;;;;;25.13;12.77;;;11.10;1.00;11.90;94308.00;;;;7396424;19;20254;-78
2023/05/09 02:17:29;;;;;;;28.55;13.45;;;11.00;1.00;11.80;94281.00;;;;7396367;19;20131;-77
2023/05/09 02:20:04;;;;;;;39.42;13.02;;;11.10;1.00;11.50;94289.00;;;;7397480;19;20133;-77
2023/05/09 02:22:42;;;;;;;47.33;13.95;;;11.00;1.00;11.70;94290.00;;;;7396555;19;20144;-77
2023/05/09 02:25:17;;;;;;;33.80;12.65;;;11.00;1.00;11.60;94285.00;;;;7397678;19;20589;-76
2023/05/09 02:27:54;;;;;;;30.02;11.90;;;10.90;1.00;11.60;94293.00;;;;7396597;19;20137;-77
2023/05/09 02:30:25;;;;;;;31.15;12.07;;;10.80;1.00;11.50;94295.00;;;;7397567;19;20131;-77
2023/05/09 02:33:05;;;;;;;23.42;11.23;;;10.80;1.00;11.60;94295.00;;;;7398438;19;20135;-77
2023/05/09 02:35:43;;;;;;;24.75;11.13;;;10.80;1.00;11.50;94297.00;;;;7395952;19;20137;-77
2023/05/09 02:38:20;;;;;;;30.33;11.85;;;10.80;1.00;11.60;94301.00;;;;7396368;19;20144;-76
2023/05/09 02:40:49;;;;;;;31.67;12.82;;;10.80;1.00;11.50;94291.00;;;;7395672;19;20144;-76
2023/05/09 02:43:23;;;;;;;23.27;12.38;;;10.80;1.00;11.50;94295.00;;;;7396720;19;20599;-76
2023/05/09 02:45:51;;;;;;;24.63;12.13;;;10.80;1.00;11.50;94286.00;;;;7395189;19;20664;-77
2023/05/09 02:48:25;;;;;;;27.30;13.32;;;10.90;1.00;11.60;94246.00;;;;7396093;19;20488;-77
2023/05/09 02:50:52;;;;;;;25.48;12.75;;;10.80;1.00;11.60;94270.00;;;;7396117;19;20189;-77
2023/05/09 02:53:26;;;;;;;33.10;13.48;;;10.90;1.00;11.50;94287.00;;;;7395536;19;20139;-77
2023/05/09 02:56:02;;;;;;;30.95;12.63;;;10.90;1.00;11.60;94281.00;;;;7395710;19;20148;-77
2023/05/09 02:58:37;;;;;;;30.75;13.93;;;10.80;1.00;11.70;94278.00;;;;7395966;19;20627;-78
2023/05/09 03:01:11;;;;;;;24.40;12.50;;;10.90;1.00;11.70;94257.00;;;;7395092;19;20544;-77
2023/05/09 03:03:46;;;;;;;25.05;13.43;;;10.90;1.00;11.70;94273.00;;;;7393866;19;20608;-77
2023/05/09 03:06:20;;;;;;;24.40;12.45;;;11.00;1.00;11.70;94281.00;;;;7397432;19;20128;-77
2023/05/09 03:08:48;;;;;;;29.80;13.40;;;11.00;1.00;11.70;94276.00;;;;7396028;19;20624;-75
2023/05/09 03:11:22;;;;;;;34.92;13.05;;;11.00;1.00;11.50;94272.00;;;;7403856;19;20145;-75
2023/05/09 03:13:58;;;;;;;27.25;12.93;;;11.00;1.00;11.60;94264.00;;;;7402938;19;20121;-77
2023/05/09 03:16:41;;;;;;;26.48;13.82;;;11.00;1.00;11.60;94268.00;;;;7400925;19;20133;-78
2023/05/09 03:19:15;;;;;;;26.70;13.00;;;11.00;1.00;11.60;94255.00;;;;7401583;19;20148;-76
2023/05/09 03:21:43;;;;;;;23.60;12.00;;;11.00;1.00;11.50;94272.00;;;;7402472;19;20547;-76
2023/05/09 03:24:20;;;;;;;27.85;12.75;;;11.10;1.00;11.60;94263.00;;;;7403959;19;20129;-76
2023/05/09 03:26:55;;;;;;;21.95;12.23;;;11.00;1.00;11.60;94244.00;;;;7402558;19;20527;-76
2023/05/09 03:29:29;;;;;;;33.85;13.25;;;11.00;1.00;11.50;94243.00;;;;7402198;19;20194;-78
2023/05/09 03:32:04;;;;;;;19.30;11.07;;;10.90;1.00;11.50;94224.00;;;;7401797;19;20137;-76
2023/05/09 03:34:32;;;;;;;25.90;10.40;;;10.90;1.00;11.50;94247.00;;;;7403059;19;20149;-77
2023/05/09 03:37:05;;;;;;;26.05;11.52;;;10.90;1.00;11.60;94248.00;;;;7398472;19;20204;-77
2023/05/09 03:39:42;;;;;;;25.65;10.88;;;10.90;1.00;11.40;94242.00;;;;7402286;19;20136;-75
2023/05/09 03:42:16;;;;;;;22.40;10.27;;;10.80;1.00;11.40;94240.00;;;;7400438;19;20140;-77
2023/05/09 03:44:45;;;;;;;18.48;9.98;;;10.80;1.00;11.40;94237.00;;;;7400263;19;20633;-77
2023/05/09 03:47:19;;;;;;;14.95;9.07;;;10.80;1.00;11.50;94236.00;;;;7400362;19;20466;-76
2023/05/09 03:49:46;;;;;;;15.93;8.82;;;10.80;1.00;11.40;94219.00;;;;7401468;19;20682;-77
2023/05/09 03:52:22;;;;;;;21.17;9.50;;;10.90;1.00;11.40;94223.00;;;;7397335;19;20204;-77
2023/05/09 03:54:58;;;;;;;39.28;11.00;;;10.90;1.00;11.40;94245.00;;;;7399900;19;20204;-77
2023/05/09 03:57:34;;;;;;;44.40;11.05;;;10.80;1.00;11.40;94251.00;;;;7402253;19;20155;-79
2023/05/09 04:00:09;;;;;;;25.75;9.73;;;10.80;1.00;11.40;94242.00;;;;7401589;19;20149;-76
2023/05/09 04:02:44;;;;;;;15.15;9.93;;;10.70;1.00;11.50;94254.00;;;;7400677;19;20161;-77
2023/05/09 04:05:13;;;;;;;16.55;10.75;;;10.80;1.00;11.50;94212.00;;;;7401285;19;20132;-77
2023/05/09 04:07:47;;;;;;;17.02;10.18;;;10.90;1.00;11.60;94201.00;;;;7400506;19;20488;-77
2023/05/09 04:10:21;;;;;;;17.80;10.48;;;11.00;1.00;11.60;94219.00;;;;7398565;19;20132;-75
2023/05/09 04:12:49;;;;;;;15.63;9.90;;;11.00;1.00;11.50;94230.00;;;;7400051;19;20121;-75
2023/05/09 04:15:30;;;;;;;18.17;10.13;;;11.00;1.00;11.50;94226.00;;;;7399390;19;20144;-76
2023/05/09 04:18:04;;;;;;;20.55;9.95;;;11.10;1.00;11.50;94228.00;;;;7399537;19;20196;-77
2023/05/09 04:20:39;;;;;;;19.45;9.63;;;11.00;1.00;11.50;94216.00;;;;7398126;19;20149;-76
2023/05/09 04:23:13;;;;;;;20.90;9.73;;;10.90;1.00;11.60;94197.00;;;;7401160;19;20125;-75
2023/05/09 04:25:40;;;;;;;17.10;9.25;;;10.90;1.00;11.80;94213.00;;;;7401046;19;20607;-77
2023/05/09 04:28:14;;;;;;;16.48;9.30;;;10.80;1.00;11.70;94232.00;;;;7400820;19;20124;-77
2023/05/09 04:30:49;;;;;;;20.88;9.63;;;10.80;1.00;11.70;94235.00;;;;7400635;19;20138;-76
2023/05/09 04:33:23;;;;;;;19.58;8.70;;;10.80;1.00;11.70;94214.00;;;;7399073;19;20172;-77
2023/05/09 04:35:58;;;;;;;20.45;9.85;;;10.90;1.00;11.80;94233.00;;;;7399278;19;20600;-77
2023/05/09 04:38:31;;;;;;;14.27;8.88;;;11.00;1.00;11.70;94240.00;;;;7394765;19;20150;-77
2023/05/09 04:41:05;;;;;;;19.80;8.18;;;11.00;1.00;11.70;94224.00;;;;7400901;19;20580;-76
2023/05/09 04:43:40;;;;;;;18.77;8.77;;;11.00;1.00;12.00;94240.00;;;;7401215;19;20160;-77
2023/05/09 04:46:14;;;;;;;18.38;8.60;;;11.10;1.00;12.00;94239.00;;;;7394677;19;20216;-77
2023/05/09 04:48:41;;;;;;;28.10;9.55;;;11.10;1.00;12.10;94228.00;;;;7398345;19;20153;-77
2023/05/09 04:51:15;;;;;;;16.17;8.52;;;11.20;1.00;12.20;94243.00;;;;7399591;19;20605;-77
2023/05/09 04:53:42;;;;;;;15.38;7.90;;;11.20;1.00;12.20;94213.00;;;;7396800;19;20188;-76
2023/05/09 04:56:16;;;;;;;13.23;8.45;;;11.30;1.00;12.20;94234.00;;;;7395272;19;20592;-77
2023/05/09 04:58:43;;;;;;;14.82;7.57;;;11.40;1.00;12.10;94215.00;;;;7398545;19;20133;-76
2023/05/09 05:01:19;;;;;;;18.50;8.32;;;11.40;1.00;12.20;94214.00;;;;7398538;19;20153;-76
2023/05/09 05:03:48;;;;;;;11.05;7.18;;;11.50;1.00;12.20;94199.00;;;;7397126;19;20446;-77
2023/05/09 05:06:22;;;;;;;11.52;8.60;;;11.60;1.00;12.20;94220.00;;;;7396525;19;20144;-76
2023/05/09 05:08:49;;;;;;;10.43;8.00;;;11.70;99.90;12.40;94218.00;;;;7396759;19;20216;-75
2023/05/09 05:11:24;;;;;;;11.63;7.65;;;11.70;99.90;12.30;94228.00;;;;7398256;19;20591;-75
2023/05/09 05:13:51;;;;;;;10.40;7.90;;;11.80;99.90;12.30;94197.00;;;;7398202;19;20203;-75
2023/05/09 05:16:31;;;;;;;10.10;7.22;;;11.90;99.90;12.70;94210.00;;;;7395671;19;20155;-75
2023/05/09 05:18:58;;;;;;;10.35;7.90;;;11.90;1.00;12.80;94229.00;;;;7398608;19;20246;-76
2023/05/09 05:21:32;;;;;;;9.98;7.07;;;12.00;99.90;12.70;94212.00;;;;7398791;19;20746;-75
2023/05/09 05:24:00;;;;;;;11.25;6.88;;;12.10;99.90;12.60;94186.00;;;;7396548;19;20133;-76
2023/05/09 05:26:34;;;;;;;9.02;7.07;;;12.10;99.90;12.70;94226.00;;;;7397645;19;20794;-75
2023/05/09 05:29:01;;;;;;;11.90;7.35;;;12.20;99.90;12.80;94219.00;;;;7395699;19;20208;-75
2023/05/09 05:31:54;;;;;;;7.82;6.95;;;12.30;1.00;13.00;94212.00;;;;7396153;19;20175;-75
2023/05/09 05:34:35;;;;;;;10.15;6.97;;;12.30;1.00;13.10;94212.00;;;;7397953;19;20129;-75
2023/05/09 05:37:09;;;;;;;12.63;7.80;;;12.40;1.00;13.30;94205.00;;;;7396162;19;20878;-75
2023/05/09 05:39:36;;;;;;;9.15;7.60;;;12.50;1.00;13.50;94188.00;;;;7397426;19;20133;-75
2023/05/09 05:42:15;;;;;;;9.30;7.07;;;12.70;1.00;13.70;94196.00;;;;7397746;19;20576;-75
2023/05/09 05:44:42;;;;;;;11.02;7.43;;;12.80;99.90;13.90;94217.00;;;;7397023;19;20457;-75
2023/05/09 05:47:16;;;;;;;11.13;7.10;;;13.00;99.90;13.90;94213.00;;;;7398589;19;20482;-74
2023/05/09 05:49:43;;;;;;;7.28;6.40;;;13.10;99.90;14.00;94210.00;;;;7398670;19;20188;-74
2023/05/09 05:52:17;;;;;;;7.82;7.03;;;13.20;99.90;14.40;94195.00;;;;7398338;19;20125;-76
2023/05/09 05:54:50;;;;;;;8.75;7.10;;;13.30;99.90;14.40;94201.00;;;;7397662;19;20121;-75
2023/05/09 05:57:17;;;;;;;11.20;7.88;;;13.50;99.90;14.70;94209.00;;;;7395800;19;20136;-75
2023/05/09 05:59:53;;;;;;;7.88;7.07;;;13.60;99.90;14.90;94171.00;;;;7397874;19;20132;-75
2023/05/09 06:02:20;;;;;;;9.48;8.00;;;13.70;99.90;15.20;94169.00;;;;7395122;19;20137;-75
2023/05/09 06:04:56;;;;;;;8.80;7.47;;;13.80;1.00;15.20;94188.00;;;;7397743;19;20121;-75
2023/05/09 06:07:23;;;;;;;6.72;5.05;;;14.10;1.00;15.20;94176.00;;;;7397498;19;20129;-76
2023/05/09 06:09:59;;;;;;;4.82;4.32;;;14.10;1.00;15.40;94180.00;;;;7397824;19;20139;-76
2023/05/09 06:12:33;;;;;;;8.10;4.85;;;14.30;1.00;15.70;94171.00;;;;7398727;19;20149;-73
2023/05/09 06:15:07;;;;;;;5.28;4.65;;;14.60;1.00;16.00;94177.00;;;;7396020;19;20140;-76
2023/05/09 06:17:50;;;;;;;6.93;6.22;;;14.90;1.00;16.50;94167.00;;;;7392514;19;20120;-74
2023/05/09 06:20:18;;;;;;;5.72;5.22;;;15.10;1.00;16.80;94137.00;;;;7397546;19;20134;-75
2023/05/09 06:22:52;;;;;;;6.22;4.70;;;15.40;1.00;17.20;94168.00;;;;7396179;19;20144;-74
2023/05/09 06:25:19;;;;;;;7.47;5.30;;;15.70;13.70;17.20;94139.00;;;;7397781;19;20151;-73
2023/05/09 06:27:53;;;;;;;5.30;4.65;;;16.00;99.90;17.60;94165.00;;;;7397404;19;20161;-73
2023/05/09 06:30:22;;;;;;;4.70;4.28;;;16.20;99.90;17.60;94138.00;;;;7395682;19;20604;-74
2023/05/09 06:32:57;;;;;;;5.00;4.50;;;16.30;99.90;18.00;94165.00;;;;7397305;19;20161;-73
2023/05/09 06:35:24;;;;;;;7.45;4.80;;;16.40;99.90;18.10;94148.00;;;;7395734;19;20596;-75
2023/05/09 06:37:51;;;;;;;5.63;5.13;;;16.50;99.90;18.00;94115.00;;;;7395697;19;20639;-77
2023/05/09 06:40:25;;;;;;;5.72;4.43;;;16.80;1.00;18.00;94160.00;;;;7396765;19;20608;-76
2023/05/09 06:42:53;;;;;;;4.38;3.95;;;17.00;99.90;18.10;94152.00;;;;7395242;19;20520;-76
2023/05/09 06:45:27;;;;;;;4.88;4.43;;;17.20;1.00;18.50;94150.00;;;;7400235;19;20235;-77
2023/05/09 06:47:54;;;;;;;5.10;4.60;;;17.40;99.90;18.60;94147.00;;;;7400403;19;20137;-76
2023/05/09 06:50:21;;;;;;;5.43;4.93;;;17.60;99.90;18.50;94133.00;;;;7404485;19;20125;-75
2023/05/09 06:52:58;;;;;;;4.60;4.20;;;17.80;1.00;18.80;94135.00;;;;7404852;19;20121;-75
2023/05/09 06:55:32;;;;;;;4.85;4.35;;;18.00;99.90;19.30;94130.00;;;;7403315;19;20462;-75
2023/05/09 06:58:07;;;;;;;5.85;4.38;;;18.10;1.00;19.70;94134.00;;;;7400525;19;20628;-76
2023/05/09 07:00:35;;;;;;;6.68;4.20;;;18.40;1.00;19.80;94132.00;;;;7404101;19;20588;-83
2023/05/09 07:03:10;;;;;;;5.10;4.60;;;18.50;1.00;19.80;94133.00;;;;7401544;19;20146;-75
2023/05/09 07:05:37;;;;;;;5.60;5.10;;;18.70;99.90;19.40;94127.00;;;;7404557;19;20627;-77
2023/05/09 07:08:11;;;;;;;5.47;4.40;;;18.70;99.90;19.30;94133.00;;;;7404240;19;20514;-76
2023/05/09 07:10:38;;;;;;;7.05;5.80;;;18.70;99.90;19.50;94127.00;;;;7401961;19;20148;-77
2023/05/09 07:13:12;;;;;;;5.70;5.10;;;18.30;1.00;19.10;94118.00;;;;7403415;19;20125;-76
2023/05/09 07:15:39;;;;;;;5.60;5.10;;;18.20;1.00;19.40;94092.00;;;;7400846;19;20260;-76
2023/05/09 07:18:13;;;;;;;8.10;5.60;;;18.10;1.00;19.30;94104.00;;;;7401087;19;20605;-75
2023/05/09 07:20:42;;;;;;;6.53;5.57;;;18.10;1.00;19.80;94100.00;;;;7403595;19;20137;-75
2023/05/09 07:23:10;;;;;;;8.70;5.72;;;18.30;1.00;20.30;94098.00;;;;7402912;19;20149;-76
2023/05/09 07:25:44;;;;;;;7.43;6.13;;;18.70;1.00;20.80;94084.00;;;;7401997;19;20140;-76
2023/05/09 07:28:12;;;;;;;5.80;5.30;;;19.10;1.00;20.20;94093.00;;;;7401831;19;20141;-76
2023/05/09 07:30:45;;;;;;;5.90;5.40;;;19.30;99.90;20.20;94097.00;;;;7401436;19;20169;-77
2023/05/09 07:33:14;;;;;;;7.60;5.70;;;19.40;99.90;20.20;94093.00;;;;7403239;19;20136;-77
2023/05/09 07:35:47;;;;;;;6.95;5.05;;;19.20;99.90;19.80;94098.00;;;;7401442;19;20133;-76
2023/05/09 07:38:15;;;;;;;5.70;5.10;;;19.10;99.90;19.30;94090.00;;;;7397838;19;20149;-76
2023/05/09 07:40:48;;;;;;;5.78;5.28;;;19.00;99.90;19.40;94074.00;;;;7402748;19;20521;-76
2023/05/09 07:43:15;;;;;;;5.35;4.93;;;18.90;99.90;19.30;94096.00;;;;7400914;19;20620;-77
2023/05/09 07:45:50;;;;;;;5.93;5.43;;;18.70;99.90;19.10;94090.00;;;;7398736;19;20211;-76
2023/05/09 07:48:18;;;;;;;5.22;4.78;;;18.50;1.00;19.20;94074.00;;;;7400635;19;20589;-76
2023/05/09 07:50:51;;;;;;;6.18;5.22;;;18.60;1.00;19.70;94074.00;;;;7402973;19;20600;-75
2023/05/09 07:53:25;;;;;;;7.53;4.60;;;18.70;99.90;20.30;94078.00;;;;7402955;19;20135;-76
2023/05/09 07:56:06;;;;;;;5.28;4.53;;;19.00;99.90;21.20;94053.00;;;;7397390;19;20139;-77
2023/05/09 07:58:34;;;;;;;4.70;4.22;;;19.40;99.90;21.60;94057.00;;;;7399841;19;20502;-76
2023/05/09 08:01:07;;;;;;;5.47;4.53;;;20.00;99.90;21.30;94062.00;;;;7402506;19;20469;-77
2023/05/09 08:03:40;;;;;;;6.68;4.90;;;19.80;48.50;21.00;94059.00;;;;7399669;19;20151;-76
2023/05/09 08:06:14;;;;;;;5.75;5.20;;;19.50;99.90;20.30;94052.00;;;;7401428;19;20143;-78
2023/05/09 08:08:48;;;;;;;5.47;4.97;;;19.40;99.90;22.20;94028.00;;;;7402536;19;20145;-75
2023/05/09 08:11:16;;;;;;;5.22;4.72;;;19.80;99.90;22.60;94042.00;;;;7401308;19;20133;-76
2023/05/09 08:13:49;;;;;;;5.13;4.68;;;20.20;99.90;22.20;94043.00;;;;7399955;19;20141;-77
2023/05/09 08:16:16;;;;;;;5.45;4.90;;;20.40;99.90;21.90;94036.00;;;;7397133;19;20141;-77
2023/05/09 08:18:50;;;;;;;5.03;4.53;;;20.50;20.30;21.20;94014.00;;;;7401757;19;20157;-76
2023/05/09 08:21:17;;;;;;;4.80;4.35;;;20.50;19.50;21.60;94036.00;;;;7401371;19;20608;-75
2023/05/09 08:23:51;;;;;;;4.72;4.25;;;20.70;10.70;21.90;94047.00;;;;7401998;19;20157;-74
2023/05/09 08:26:18;;;;;;;5.13;4.60;;;21.00;22.30;22.10;94029.00;;;;7400546;19;20117;-77
2023/05/09 08:28:53;;;;;;;4.97;4.53;;;21.10;15.00;23.20;94012.00;;;;7399813;19;20601;-76
2023/05/09 08:31:20;;;;;;;7.93;5.20;;;21.30;1.00;23.40;94036.00;;;;7399373;19;20218;-76
2023/05/09 08:33:53;;;;;;;5.60;4.53;;;21.50;1.00;23.10;94013.00;;;;7399256;19;20133;-78
2023/05/09 08:36:20;;;;;;;5.00;4.60;;;21.80;1.00;22.70;94028.00;;;;7400131;19;20133;-76
2023/05/09 08:38:54;;;;;;;4.72;4.32;;;21.80;1.00;21.90;94029.00;;;;7400775;19;20588;-76
2023/05/09 08:41:29;;;;;;;5.22;4.72;;;21.40;1.00;22.40;94024.00;;;;7395816;19;20153;-77
2023/05/09 08:44:04;;;;;;;5.13;4.63;;;21.20;1.00;22.30;94003.00;;;;7399826;19;20137;-76
2023/05/09 08:46:43;;;;;;;4.68;4.28;;;21.50;1.00;24.00;93983.00;;;;7400456;19;20483;-75
2023/05/09 08:49:10;;;;;;;4.30;3.90;;;21.80;1.00;23.50;94010.00;;;;7400121;19;20121;-76
2023/05/09 08:51:47;;;;;;;4.78;3.83;;;22.20;1.00;23.70;93992.00;;;;7400405;19;20141;-76
2023/05/09 08:54:22;;;;;;;5.05;3.83;;;22.50;1.00;24.30;93991.00;;;;7400324;19;20200;-76
2023/05/09 08:56:50;;;;;;;7.32;4.03;;;22.30;1.00;24.40;93989.00;;;;7399062;19;20200;-75
2023/05/09 08:59:27;;;;;;;6.38;4.20;;;22.50;1.00;22.60;94015.00;;;;7400492;19;20136;-77
2023/05/09 09:01:55;;;;;;;4.03;3.63;;;22.00;1.00;21.20;94022.00;;;;7398723;19;20204;-77
2023/05/09 09:04:29;;;;;;;3.92;3.58;;;21.10;1.00;20.20;94013.00;;;;7400009;19;20124;-76
2023/05/09 09:07:05;;;;;;;4.97;4.57;;;20.60;1.00;20.20;94022.00;;;;7398137;19;20135;-75
2023/05/09 09:09:44;;;;;;;6.57;4.40;;;19.80;1.00;20.10;94023.00;;;;7398916;19;20136;-74
2023/05/09 09:12:22;;;;;;;5.25;4.72;;;19.40;99.90;20.00;94026.00;;;;7399967;19;20208;-78
2023/05/09 09:15:10;;;;;;;5.70;4.85;;;19.40;99.90;19.70;94000.00;;;;7398415;19;20603;-79
2023/05/09 09:17:50;;;;;;;7.00;5.55;;;19.10;99.90;19.10;94029.00;;;;7393193;19;20135;-77
2023/05/09 09:20:29;;;;;;;5.55;5.05;;;18.70;99.90;19.40;94007.00;;;;7398107;19;20139;-75
2023/05/09 09:23:00;;;;;;;5.93;4.53;;;18.70;99.90;20.30;94006.00;;;;7398568;19;20125;-77
2023/05/09 09:25:34;;;;;;;5.10;4.15;;;18.90;99.90;19.70;94003.00;;;;7399128;19;20208;-77
2023/05/09 09:28:02;;;;;;;7.80;4.35;;;18.50;99.90;20.10;94000.00;;;;7399188;19;20121;-78
2023/05/09 09:30:43;;;;;;;4.82;4.35;;;18.60;99.90;20.30;93997.00;;;;7397103;19;20686;-77
2023/05/09 09:33:22;;;;;;;8.20;4.68;;;18.80;99.90;20.70;93987.00;;;;7397185;19;20141;-75
2023/05/09 09:35:56;;;;;;;5.03;4.43;;;19.10;99.90;20.40;93985.00;;;;7398373;19;20146;-76
2023/05/09 09:38:24;;;;;;;7.43;4.53;;;19.40;99.90;20.50;93991.00;;;;7397565;19;20141;-76
2023/05/09 09:40:51;;;;;;;5.88;5.38;;;19.60;99.90;20.50;93990.00;;;;7398417;19;20214;-75
2023/05/09 09:43:29;;;;;;;5.10;4.60;;;19.60;99.90;20.10;93988.00;;;;7398604;19;20145;-76
2023/05/09 09:46:04;;;;;;;4.82;4.32;;;19.30;82.60;19.60;93976.00;;;;7398748;19;20186;-75
2023/05/09 09:48:34;;;;;;;4.97;3.97;;;19.20;99.90;20.10;93953.00;;;;7392428;19;20133;-77
2023/05/09 09:51:10;;;;;;;7.82;4.25;;;19.20;99.90;21.60;93946.00;;;;7398661;19;20595;-77
2023/05/09 09:53:45;;;;;;;4.50;4.10;;;19.50;99.90;22.40;93962.00;;;;7397774;19;20206;-80
2023/05/09 09:56:12;;;;;;;6.20;4.35;;;19.90;16.80;21.70;93964.00;;;;7398211;19;20137;-75
2023/05/09 09:58:46;;;;;;;4.25;3.85;;;20.10;1.00;21.50;93961.00;;;;7396483;19;20137;-75
2023/05/09 10:01:15;;;;;;;4.03;3.65;;;20.00;1.00;21.00;93949.00;;;;7397738;19;20596;-75
2023/05/09 10:03:49;;;;;;;6.00;3.90;;;19.60;1.00;20.20;93955.00;;;;7396042;19;20618;-78
2023/05/09 10:06:23;;;;;;;4.72;4.05;;;19.60;26.10;20.40;93955.00;;;;7396875;19;20129;-74
2023/05/09 10:09:00;;;;;;;4.32;3.15;;;19.50;1.00;20.30;93957.00;;;;7397749;19;20137;-75
2023/05/09 10:11:34;;;;;;;3.72;2.90;;;19.40;6.80;20.20;93953.00;;;;7396393;19;20143;-74
2023/05/09 10:14:01;;;;;;;2.80;2.60;;;19.40;78.50;20.80;93945.00;;;;7397295;19;20200;-77
2023/05/09 10:16:42;;;;;;;3.50;3.20;;;19.50;11.80;20.80;93946.00;;;;7395461;19;20168;-76
2023/05/09 10:19:22;;;;;;;4.32;2.97;;;19.40;1.00;20.40;93919.00;;;;7396773;19;20124;-71
2023/05/09 10:22:06;;;;;;;4.10;2.55;;;19.40;1.00;21.30;93874.00;;;;7402621;19;20133;-75
2023/05/09 10:25:01;;;;;;;2.30;1.90;;;19.70;1.00;22.10;93879.00;;;;7403308;19;20157;-72
2023/05/09 10:27:36;;;;;;;3.35;1.90;;;20.20;1.00;22.20;93896.00;;;;7404795;19;20129;-72
2023/05/09 10:30:11;;;;;;;2.90;2.63;;;21.10;1.00;23.00;93891.00;;;;7404759;19;20160;-71
2023/05/09 10:33:06;;;;;;;3.38;2.38;;;21.70;1.00;23.00;93897.00;;;;7398804;19;20125;-73
2023/05/09 10:35:39;;;;;;;2.55;2.05;;;22.00;1.00;23.40;93900.00;;;;7396475;19;20493;-71
2023/05/09 10:38:13;;;;;;;1.90;1.80;;;22.20;1.00;22.60;93870.00;;;;7396885;19;20137;-71
2023/05/09 10:40:40;;;;;;;3.78;2.38;;;22.20;1.00;22.80;93887.00;;;;7396580;19;20479;-74
2023/05/09 10:43:15;;;;;;;2.60;2.40;;;22.20;1.00;22.70;93887.00;;;;7398007;19;20141;-73
2023/05/09 10:45:51;;;;;;;2.33;2.13;;;21.90;1.00;22.10;93887.00;;;;7392030;19;20144;-76
2023/05/09 10:48:25;;;;;;;4.10;2.40;;;21.80;1.00;21.40;93883.00;;;;7397539;19;20147;-71
2023/05/09 10:50:53;;;;;;;1.98;1.80;;;21.30;1.00;21.40;93891.00;;;;7396494;19;20667;-73
2023/05/09 10:53:49;;;;;;;2.55;1.90;;;21.00;1.00;21.10;93879.00;;;;7396987;19;20149;-72
2023/05/09 10:56:30;;;;;;;2.10;2.00;;;20.50;1.00;20.70;93879.00;;;;7394347;19;20155;-73
2023/05/09 10:59:04;;;;;;;3.70;1.90;;;20.10;1.00;21.10;93874.00;;;;7392768;19;20144;-73
2023/05/09 11:01:45;;;;;;;2.17;2.00;;;20.00;1.00;21.50;93873.00;;;;7395682;19;20607;-72
2023/05/09 11:04:18;;;;;;;2.40;2.20;;;20.20;1.00;21.70;93845.00;;;;7397555;19;20168;-70
2023/05/09 11:06:54;;;;;;;2.53;2.03;;;20.30;1.00;21.70;93849.00;;;;7394928;19;20132;-73
2023/05/09 11:09:37;;;;;;;3.63;1.90;;;20.40;1.00;21.30;93855.00;;;;7396136;19;20133;-71
2023/05/09 11:12:14;;;;;;;2.47;2.25;;;20.10;1.00;21.50;93828.00;;;;7395707;19;20147;-71
2023/05/09 11:14:54;;;;;;;3.95;2.15;;;20.30;1.00;21.50;93869.00;;;;7395868;19;20486;-71
2023/05/09 11:17:37;;;;;;;5.63;2.13;;;20.40;1.00;21.10;93849.00;;;;7395727;19;20583;-71
2023/05/09 11:20:11;;;;;;;2.50;2.15;;;20.50;1.00;21.00;93833.00;;;;7397640;19;20361;-73
2023/05/09 11:22:46;;;;;;;2.60;2.28;;;20.40;1.00;20.80;93860.00;;;;7394830;19;20137;-73
2023/05/09 11:25:15;;;;;;;2.40;2.20;;;20.20;1.00;20.80;93830.00;;;;7395371;19;20153;-71